首页
METAR-TAF:

METAR-TAF

机场 :

基隆拿國際機場

基隆拿, 不列颠哥伦比亚, 加拿大

纬度: 49-58N, 经度: 119-23W, 海拔: 430米

当前天气观测

该预报发布于21分钟前的00:00 UTC
风速10节,风向,在东转东北之间变化
温度 11°C
湿度 47%
气压 1017 hPa
能見度: 14.5公里
多云层高于7600英尺
多云层高于9300英尺
多云层高于11000英尺

METAR: CYLW 080000Z AUTO 36010KT 350V060 9SM BKN076 BKN093 BKN110 11/M00 A3003 RMK SLP175

时间: 17:21 (00:21 UTC)

预报

该预报发布于1小时和1分钟前的23:20 UTC
预报有效从07日的 23点(UTC)到 08日的 07点(UTC)
风速12节,风向北转西北,有时为22节阵风
能見度: 10公里
多云层高于8000英尺
短暂存在
从 07日的 23点(UTC)到 08日的 04点(UTC)
风速15节,风向多变,有时为25节阵风
能見度: 10公里
多云层高于8000英尺, 积雨云.
小阵雨, 附近有雷暴
从 08日的 0400点(UTC)
风速3节,风向多变
能見度: 10公里
散云层高于8000英尺
短暂存在
从 08日的 04点(UTC)到 08日的 07点(UTC)
多云层高于8000英尺

TAF: CYLW 072320Z 0723/0807 33012G22KT P6SM BKN080 TEMPO 0723/0804 VRB15G25KT P6SM -SHRA VCTS BKN080CB FM080400 VRB03KT P6SM SCT080 TEMPO 0804/0807 BKN080 RMK FCST BASED ON AUTO OBS. NXT FCST BY 080100Z

超过4000个机场的气象观测和天气预报(METAR&TAF报告)。

可查询的气象台以黄色和红色小点在地图上表示。

将鼠标移到小点上方,可查看气象台名称。

然后点击查看天气观测和预报。

如需切换地图:点击带黑十字的绿色按钮放大地图;点击带横线的绿色按钮缩小地图;或者点击绿色箭头查看邻近地区的地图。


METAR-TAF: